createdAt,value
2023-11-15T00:00:40.856Z,13.47
2023-11-15T00:04:11.154Z,11.47
2023-11-15T00:07:18.131Z,7.93
2023-11-15T00:10:23.817Z,6.83
2023-11-15T00:13:27.007Z,10.00
2023-11-15T00:16:34.701Z,6.10
2023-11-15T00:20:20.282Z,7.47
2023-11-15T00:23:30.550Z,8.53
2023-11-15T00:26:52.609Z,6.60
2023-11-15T00:30:05.302Z,5.93
2023-11-15T00:33:34.808Z,5.70
2023-11-15T00:36:59.793Z,4.47
2023-11-15T00:40:56.150Z,6.33
2023-11-15T00:44:10.892Z,9.10
2023-11-15T00:47:43.608Z,8.13
2023-11-15T00:51:02.625Z,7.93
2023-11-15T00:54:10.101Z,8.20
2023-11-15T00:57:56.585Z,4.27
2023-11-15T01:01:32.707Z,5.20
2023-11-15T01:05:17.815Z,5.27
2023-11-15T01:13:44.159Z,6.30
2023-11-15T01:17:13.991Z,5.27
2023-11-15T01:20:17.596Z,6.23
2023-11-15T01:23:21.534Z,6.23
2023-11-15T01:26:25.909Z,5.60
2023-11-15T01:29:32.092Z,5.23
2023-11-15T01:32:35.322Z,6.90
2023-11-15T01:35:39.776Z,6.73
2023-11-15T01:46:37.937Z,5.33
2023-11-15T01:50:20.785Z,6.20
2023-11-15T02:04:47.816Z,6.43
2023-11-15T02:32:39.023Z,10.97
2023-11-15T02:36:52.581Z,10.00
2023-11-15T02:41:01.146Z,11.47
2023-11-15T02:44:29.774Z,11.13
2023-11-15T02:48:29.895Z,7.57
2023-11-15T02:52:52.178Z,6.73
2023-11-15T03:03:38.493Z,10.93
2023-11-15T03:14:32.381Z,7.27
2023-11-15T03:18:29.855Z,12.00
2023-11-15T03:22:17.078Z,14.53
2023-11-15T03:26:17.487Z,9.80
2023-11-15T03:30:33.486Z,7.87
2023-11-15T03:34:17.358Z,9.43
2023-11-15T03:38:29.320Z,7.40
2023-11-15T03:42:56.430Z,9.23
2023-11-15T03:52:08.838Z,9.70
2023-11-15T03:56:12.262Z,7.77
2023-11-15T04:00:07.836Z,9.20
2023-11-15T04:03:31.914Z,7.50
2023-11-15T04:07:54.177Z,9.67
2023-11-15T04:11:20.630Z,6.33
2023-11-15T04:15:10.824Z,8.10
2023-11-15T04:23:10.392Z,8.70
2023-11-15T04:26:24.377Z,7.10
2023-11-15T04:29:29.602Z,12.53
2023-11-15T04:33:13.591Z,7.30
2023-11-15T04:37:08.519Z,4.40
2023-11-15T04:54:47.506Z,4.07
2023-11-15T04:59:08.274Z,5.13
2023-11-15T05:07:36.221Z,4.77
2023-11-15T05:12:17.722Z,5.57
2023-11-15T05:16:09.629Z,3.37
2023-11-15T05:20:19.817Z,3.70
2023-11-15T05:24:07.877Z,5.17
2023-11-15T05:28:06.866Z,6.17
2023-11-15T05:41:55.664Z,7.80
2023-11-15T05:54:52.312Z,4.50
2023-11-15T05:56:26.968Z,4.90
2023-11-15T05:58:07.279Z,3.73
2023-11-15T06:06:18.526Z,4.80
2023-11-15T06:09:49.101Z,4.57
2023-11-15T06:13:21.141Z,4.73
2023-11-15T06:16:54.714Z,4.73
2023-11-15T06:20:17.307Z,4.77
2023-11-15T06:23:44.242Z,4.03
2023-11-15T06:27:05.938Z,4.30
2023-11-15T06:31:31.625Z,5.73
2023-11-15T06:34:46.648Z,5.10
2023-11-15T06:38:16.870Z,9.00
2023-11-15T06:42:20.065Z,7.00
2023-11-15T06:50:02.249Z,6.07
2023-11-15T06:53:27.914Z,5.33
2023-11-15T06:57:24.201Z,6.93
2023-11-15T07:01:11.446Z,9.20
2023-11-15T07:05:27.241Z,10.60
2023-11-15T07:13:27.899Z,6.47
2023-11-15T07:16:34.910Z,6.40
2023-11-15T07:20:12.847Z,8.60
2023-11-15T07:23:43.467Z,7.60
2023-11-15T07:27:00.906Z,8.87
2023-11-15T07:34:05.712Z,6.57
2023-11-15T07:37:25.307Z,6.60
2023-11-15T07:40:48.302Z,6.77
2023-11-15T07:44:19.041Z,6.30
2023-11-15T07:48:07.836Z,6.53
2023-11-15T07:56:11.920Z,6.10
2023-11-15T08:09:56.649Z,8.43
2023-11-15T08:15:13.184Z,8.13
2023-11-15T08:18:48.555Z,6.40
2023-11-15T08:26:53.173Z,8.37
2023-11-15T08:34:28.704Z,6.07
2023-11-15T08:43:43.123Z,7.23
2023-11-15T08:47:27.512Z,6.93
2023-11-15T08:50:55.497Z,8.47
2023-11-15T08:59:56.163Z,8.50
2023-11-15T09:03:13.578Z,8.20
2023-11-15T09:06:42.879Z,7.67
2023-11-15T09:14:18.733Z,7.20
2023-11-15T09:17:26.110Z,10.40
2023-11-15T09:25:12.818Z,7.10
2023-11-15T09:29:22.049Z,6.80
2023-11-15T09:36:51.654Z,8.37
2023-11-15T09:40:31.311Z,7.67
2023-11-15T09:44:11.013Z,8.93
2023-11-15T09:47:21.009Z,8.13
2023-11-15T09:51:21.663Z,10.23
2023-11-15T10:02:28.652Z,7.93
2023-11-15T11:58:57.425Z,7.10
2023-11-15T12:07:30.734Z,6.57
2023-11-15T12:11:37.057Z,5.43
2023-11-15T12:25:09.365Z,6.07
2023-11-15T12:29:28.612Z,6.80
2023-11-15T12:34:00.242Z,6.30
2023-11-15T12:38:20.857Z,8.83
2023-11-15T13:17:58.781Z,5.53
2023-11-15T13:33:14.736Z,5.00
2023-11-15T13:36:57.549Z,6.70
2023-11-15T13:46:48.568Z,4.77
2023-11-15T13:55:23.572Z,6.83
2023-11-15T14:08:56.033Z,4.07
2023-11-15T14:18:09.854Z,4.23
2023-11-15T14:21:52.107Z,4.80
2023-11-15T14:36:30.044Z,5.27
2023-11-15T14:40:04.382Z,4.13
2023-11-15T14:43:18.317Z,5.27
2023-11-15T14:46:27.125Z,4.03
2023-11-15T14:49:44.570Z,3.73
2023-11-15T14:53:25.202Z,4.00
2023-11-15T14:57:05.088Z,3.33
2023-11-15T15:00:16.926Z,3.23
2023-11-15T15:03:45.217Z,3.87
2023-11-15T15:07:04.414Z,3.10
2023-11-15T15:10:33.748Z,3.80
2023-11-15T15:13:49.028Z,3.40
2023-11-15T15:17:21.370Z,3.43
2023-11-15T15:21:21.886Z,3.57
2023-11-15T15:24:35.702Z,2.40
2023-11-15T15:28:05.625Z,2.90
2023-11-15T15:31:24.006Z,2.50
2023-11-15T15:39:22.964Z,3.00
2023-11-15T15:43:46.416Z,4.93
2023-11-15T15:53:58.034Z,3.40
2023-11-15T15:57:47.318Z,3.97
2023-11-15T16:06:20.670Z,4.50
2023-11-15T16:10:37.241Z,4.63
2023-11-15T16:14:29.776Z,4.20
2023-11-15T16:18:14.968Z,5.13
2023-11-15T16:22:45.008Z,4.20
2023-11-15T16:27:37.531Z,5.00
2023-11-15T16:31:44.081Z,4.60
2023-11-15T16:40:54.100Z,5.27
2023-11-15T16:44:45.870Z,6.17
2023-11-15T16:48:49.996Z,10.50
2023-11-15T16:52:35.928Z,7.10
2023-11-15T17:01:26.543Z,7.33
2023-11-15T17:10:01.392Z,8.17
2023-11-15T17:13:35.718Z,7.53
2023-11-15T17:16:59.059Z,13.57
2023-11-15T17:21:15.765Z,18.23
2023-11-15T17:25:19.800Z,10.93
2023-11-15T17:29:52.939Z,9.90
2023-11-15T17:33:20.741Z,13.27
2023-11-15T17:36:36.583Z,16.20
2023-11-15T17:40:19.132Z,15.53
2023-11-15T17:43:38.914Z,14.77
2023-11-15T17:46:57.512Z,12.17
2023-11-15T17:50:27.522Z,12.73
2023-11-15T17:53:38.233Z,10.33
2023-11-15T17:56:48.985Z,15.33
2023-11-15T17:59:58.198Z,10.07
2023-11-15T18:03:05.738Z,10.30
2023-11-15T18:06:22.946Z,12.97
2023-11-15T18:09:36.561Z,9.03
2023-11-15T18:12:41.009Z,9.63
2023-11-15T18:15:48.321Z,8.63
2023-11-15T18:18:59.669Z,8.53
2023-11-15T18:22:06.220Z,10.77
2023-11-15T18:25:29.177Z,9.03
2023-11-15T18:28:39.250Z,10.63
2023-11-15T18:31:43.306Z,9.27
2023-11-15T18:34:51.467Z,13.27
2023-11-15T18:38:05.411Z,13.83
2023-11-15T18:41:12.432Z,13.27
2023-11-15T18:44:21.033Z,13.50
2023-11-15T18:47:24.925Z,12.87
2023-11-15T18:50:32.780Z,12.10
2023-11-15T18:53:38.690Z,12.00
2023-11-15T18:56:57.423Z,13.70
2023-11-15T19:35:37.350Z,10.23
2023-11-15T19:38:49.790Z,10.33
2023-11-15T19:41:58.858Z,12.77
2023-11-15T19:45:05.497Z,12.40
2023-11-15T19:48:13.653Z,12.67
2023-11-15T19:51:37.025Z,11.60
2023-11-15T19:55:04.606Z,9.70
2023-11-15T19:58:10.425Z,12.27
2023-11-15T20:01:25.988Z,12.00
2023-11-15T20:04:37.135Z,12.00
2023-11-15T20:07:51.219Z,11.23
2023-11-15T20:11:00.187Z,10.87
2023-11-15T20:14:06.610Z,11.57
2023-11-15T20:17:11.616Z,13.97
2023-11-15T20:20:30.195Z,10.73
2023-11-15T20:23:35.472Z,8.93
2023-11-15T20:26:40.187Z,9.87
2023-11-15T20:30:04.777Z,8.23
2023-11-15T20:33:15.461Z,9.83
2023-11-15T20:36:19.686Z,10.33
2023-11-15T20:39:27.913Z,11.30
2023-11-15T20:42:36.731Z,13.33
2023-11-15T20:46:05.017Z,9.97
2023-11-15T20:49:24.008Z,10.13
2023-11-15T20:52:30.860Z,9.27
2023-11-15T20:55:44.552Z,8.10
2023-11-15T20:59:42.406Z,7.97
2023-11-15T21:02:55.421Z,8.50
2023-11-15T21:06:09.224Z,9.70
2023-11-15T21:09:23.978Z,8.40
2023-11-15T21:12:36.571Z,8.30
2023-11-15T21:15:43.140Z,9.03
2023-11-15T21:19:15.655Z,10.53
2023-11-15T21:23:07.538Z,8.10
2023-11-15T21:26:20.415Z,10.80
2023-11-15T21:29:53.216Z,8.50
2023-11-15T21:33:01.526Z,8.47
2023-11-15T21:36:13.340Z,9.70
2023-11-15T21:39:45.267Z,9.23
2023-11-15T21:42:58.562Z,9.33
2023-11-15T21:46:18.413Z,8.07
2023-11-15T21:49:35.792Z,8.67
2023-11-15T21:52:56.453Z,8.93
2023-11-15T21:56:40.229Z,6.20
2023-11-15T22:00:17.601Z,7.33
2023-11-15T22:42:38.907Z,14.63
2023-11-15T23:08:26.509Z,9.47
2023-11-15T23:17:43.976Z,12.87
2023-11-15T23:21:50.955Z,9.07
2023-11-15T23:26:05.757Z,10.20
2023-11-15T23:29:24.517Z,9.90
2023-11-15T23:33:25.840Z,9.23
2023-11-15T23:41:45.669Z,11.83
2023-11-15T23:50:11.539Z,9.90
2023-11-15T23:54:17.984Z,9.20
